メインページ
METAR-TAF:

METAR-TAF

空港 :

シアトル・タコマ国際空港

シアトル / タコマ, ワシントン, アメリカ合衆国

緯度: 47-26-41N, 経度: 122-18-49W, 海抜: 130m

現時点の気象観測

当レポートは1時間0分前の06:53(UTC)に作成
西の風 3kt
気温 16°C
湿度 72%
気圧 1021 hPa
視程: 16.1km
高度4600ftの雲は散在している

METAR: KSEA 190653Z 26003KT 10SM SCT046 16/11 A3016 RMK AO2 SLP218 T01560111

時間: 00:53 (07:53 UTC)

予報

当レポートは2時間17分前の05:36(UTC)に作成
予報は19日の 06時(UTC)から 20日の 12時(UTC)まで有効
南西の風 8kt
視程: 10km
高度4000ftの千切れ雲あり
19日の 1100時(UTC)から
南/南西の風 6kt
視程: 10km
高度1000ftの曇り
19日の 1600時(UTC)から
南/南西の風 8kt
視程: 10km
高度1600ftの曇り
19日の 1700時(UTC)から
南/南西の風 8kt
視程: 10km
高度1600ftの雲は散在している
高度2500ftの千切れ雲あり
19日の 1900時(UTC)から
南西の風 8kt
視程: 10km
高度3000ftの雲は散在している
高度25000ftの雲は散在している
20日の 0100時(UTC)から
西の風 6kt
視程: 10km
高度25000ftの雲は散在している

TAF: KSEA 190536Z 1906/2012 22008KT P6SM BKN040 FM191100 21006KT P6SM OVC010 FM191600 20008KT P6SM OVC016 FM191700 21008KT P6SM SCT016 BKN025 FM191900 23008KT P6SM SCT030 SCT250 FM200100 27006KT P6SM SCT250

4,000以上の空港の気象観測と天気予報(METAR報とTAF報)

利用可能な観測所は地図上に黄色い丸と赤い丸で示す。

丸の上にカーソルを重ねると観測所名を参照できる。

次にクリックすると気象観測と天気予報を参照できる。

マップの切り替え:黒色「×」印の緑ボタンをクリックして拡大、「-」印の緑ボタンをクリックして縮小、緑色の三角印をクリックして隣りの地図に切り替え


METAR-TAF: